Tournai, Belgium
Current Conditions -  °F | °C
As of 11:30 PM on Friday 24 Oct 2014 (Local Time) from LFQQ Reporting Station
Overcast Overcast  
Wind Chill: 54°   Ceiling: 800
Heat Index: 54°   Visibility: 6mi
Dew Point: 52°   Wind: 10mph
Humidity: 94%   Direction: 200°SSW
Pressure: 30"   Gusts: NA
Location:  50.61°N, 3.39°E
Report Text: LFQQ 242130Z 20009KT 9999 OVC008 12/11 Q1016 TEMPO 2000 RADZOVC003
Loading
Personal Weather Stations






























Interactive Weather Map
Tropical Storm Tracking
New forecast layout! Learn more

10-Day Weather Forecast

Advertisements
Track Severe Weather on mobile